This is the latest recevied weather packets stored in our database for station/object HI3FAM-13. If no packets are shown the sender has not sent any weather packets the latest 10 day(s).
| Time | Temp. | Humidity | Pressure | Rain* | Wind** | Luminosity | Snow |
|---|---|---|---|---|---|---|---|
| 1778334337 | 26.11° C | 74% | 1017 hPa | 0 mm | - | - | - |
| 1778333737 | 26.11° C | 74% | 1017 hPa | 0 mm | - | - | - |
| 1778333137 | 26.11° C | 75% | 1017 hPa | 0 mm | - | - | - |
| 1778332536 | 26.67° C | 77% | 1017 hPa | 0 mm | - | - | - |
| 1778331936 | 25.56° C | 82% | 1017 hPa | 0 mm | - | - | - |
| 1778331335 | 23.89° C | 89% | 1017 hPa | 0 mm | - | - | - |
| 1778330735 | 23.89° C | 89% | 1017 hPa | 0 mm | - | - | - |
| 1778330135 | 23.89° C | 89% | 1017 hPa | 0 mm | - | - | - |
| 1778329534 | 23.89° C | 90% | 1016 hPa | 0 mm | - | - | - |
| 1778328934 | 23.33° C | 94% | 1016 hPa | 0 mm | - | - | - |
| 1778328333 | 23.33° C | 94% | 1016 hPa | 0 mm | - | - | - |
| 1778327733 | 21.67° C | 99% | 1016 hPa | 0 mm | - | - | - |
| 1778327132 | 21.67° C | 99% | 1016 hPa | 0 mm | - | - | - |
| 1778326532 | 21.67° C | 99% | 1016 hPa | 0 mm | - | - | - |
| 1778325931 | 21.11° C | 98% | 1016 hPa | 0 mm | - | - | - |
| 1778325331 | 21.67° C | 98% | 1016 hPa | 0 mm | - | - | - |
| 1778324731 | 21.67° C | 96% | 1016 hPa | 0 mm | - | - | - |
| 1778324130 | 21.67° C | 94% | 1016 hPa | 0 mm | - | - | - |
| 1778323530 | 21.67° C | 94% | 1016 hPa | 0 mm | - | - | - |
| 1778322929 | 21.11° C | 94% | 1016 hPa | 0 mm | - | - | - |
| 1778322329 | 21.11° C | 94% | 1015 hPa | 0 mm | - | - | - |
| 1778321729 | 21.11° C | 10% | - | 0 mm | - | - | - |
| 1778321128 | 21.11° C | 10% | - | 0 mm | - | - | - |
| 1778320528 | 21.11° C | 10% | - | 0 mm | - | - | - |
| 1778319927 | 21.11° C | 10% | - | 0 mm | - | - | - |
* Rain latest hour (hover to see other rain measurements)
** Current wind speed in m/s (hover to see current wind gust speed)